Time;durP1;ratioP1;P1;durP2;ratioP2;P2;SDS_P1;SDS_P2;PMS_P1;PMS_P2;Temp;Humidity;BMP_temperature;BMP_pressure;BME280_temperature;BME280_humidity;BME280_pressure;Samples;Min_cycle;Max_cycle;Signal;HPM_P1;HPM_P2
2022/03/08 00:01:09;;;;;;;13.23;6.60;;;;;;;38.61;42.99;100742.41;4976935;28;20437;-76
2022/03/08 00:03:35;;;;;;;15.47;7.20;;;;;;;38.54;43.62;100734.75;4976678;28;20463;-76
2022/03/08 00:06:02;;;;;;;9.47;5.67;;;;;;;38.42;43.53;100742.66;4976894;28;20945;-76
2022/03/08 00:08:28;;;;;;;17.60;7.60;;;;;;;38.53;43.38;100746.69;4976641;28;20426;-76
2022/03/08 00:10:54;;;;;;;21.80;7.17;;;;;;;38.33;43.91;100741.84;4976692;28;20969;-78
2022/03/08 00:13:20;;;;;;;14.70;6.97;;;;;;;38.52;43.42;100738.88;4976711;28;20898;-76
2022/03/08 00:15:47;;;;;;;12.87;5.67;;;;;;;38.31;44.42;100730.53;4976386;28;20461;-79
2022/03/08 00:18:13;;;;;;;11.53;6.00;;;;;;;38.62;43.51;100719.63;4976636;28;20453;-78
2022/03/08 00:20:39;;;;;;;14.53;6.93;;;;;;;38.14;44.21;100720.38;4974158;28;20969;-76
2022/03/08 00:23:05;;;;;;;13.07;5.97;;;;;;;38.50;43.10;100725.66;4976997;28;20419;-79
2022/03/08 00:25:31;;;;;;;12.13;6.10;;;;;;;38.31;43.78;100728.63;4976180;28;20445;-79
2022/03/08 00:27:58;;;;;;;18.77;5.47;;;;;;;38.15;44.59;100713.84;4975478;28;20441;-78
2022/03/08 00:30:26;;;;;;;18.30;7.70;;;;;;;37.94;44.49;100710.03;4975894;28;20563;-76
2022/03/08 00:32:53;;;;;;;12.83;5.70;;;;;;;38.35;44.30;100712.50;4976091;28;20485;-75
2022/03/08 00:35:20;;;;;;;10.20;6.30;;;;;;;38.37;44.46;100708.41;4976215;28;20496;-76
2022/03/08 00:37:48;;;;;;;14.60;7.10;;;;;;;38.47;44.14;100710.00;4975768;28;20433;-78
2022/03/08 00:40:14;;;;;;;9.87;5.40;;;;;;;38.52;43.45;100706.38;4974947;28;20441;-78
2022/03/08 00:42:40;;;;;;;16.53;8.97;;;;;;;38.52;43.57;100693.59;4975647;28;20426;-76
2022/03/08 00:45:08;;;;;;;22.30;6.30;;;;;;;38.37;44.34;100700.25;4975475;28;20922;-76
2022/03/08 00:47:39;;;;;;;10.53;6.03;;;;;;;38.49;43.00;100688.84;4975770;28;20448;-76
2022/03/08 00:50:11;;;;;;;22.47;5.97;;;;;;;38.54;43.86;100690.56;4975864;28;20516;-77
2022/03/08 00:52:37;;;;;;;13.73;6.03;;;;;;;38.43;43.90;100680.03;4993575;28;20936;-77
2022/03/08 00:55:06;;;;;;;12.57;5.60;;;;;;;38.55;43.53;100665.91;4975860;28;20457;-79
2022/03/08 00:57:32;;;;;;;10.80;5.17;;;;;;;38.35;43.94;100658.31;4975030;28;20425;-77
2022/03/08 00:59:58;;;;;;;9.47;5.00;;;;;;;38.39;43.50;100659.31;4993399;28;20417;-77
2022/03/08 01:02:24;;;;;;;15.23;5.20;;;;;;;38.30;44.07;100656.53;4975525;28;20453;-76
2022/03/08 01:04:50;;;;;;;19.47;5.30;;;;;;;38.25;44.44;100653.97;4975736;28;20429;-78
2022/03/08 01:07:17;;;;;;;15.93;5.10;;;;;;;38.20;44.34;100659.53;4975687;28;20429;-78
2022/03/08 01:09:43;;;;;;;12.30;5.37;;;;;;;38.29;44.42;100659.56;4975277;28;21009;-78
2022/03/08 01:12:10;;;;;;;12.30;6.50;;;;;;;38.12;44.57;100660.25;4975169;28;20845;-76
2022/03/08 01:14:36;;;;;;;16.47;7.53;;;;;;;37.90;44.79;100648.38;4975641;28;20461;-75
2022/03/08 01:17:03;;;;;;;13.00;6.83;;;;;;;37.99;44.70;100655.75;4974946;28;20441;-78
2022/03/08 01:19:29;;;;;;;14.23;6.80;;;;;;;37.87;45.26;100659.81;4975598;28;20421;-78
2022/03/08 01:21:55;;;;;;;14.07;6.80;;;;;;;37.83;45.06;100653.47;4975432;28;20432;-77
2022/03/08 01:24:21;;;;;;;14.00;6.80;;;;;;;37.89;45.24;100648.72;4975436;28;20520;-75
2022/03/08 01:26:47;;;;;;;10.33;5.83;;;;;;;38.01;44.38;100640.00;4975287;28;20508;-78
2022/03/08 01:29:13;;;;;;;13.97;7.43;;;;;;;38.09;44.73;100639.25;4975291;28;20538;-78
2022/03/08 01:31:40;;;;;;;12.17;6.63;;;;;;;37.75;45.56;100632.53;4975049;28;20807;-76
2022/03/08 01:34:06;;;;;;;18.27;7.57;;;;;;;37.89;45.03;100644.09;4975076;28;20932;-76
2022/03/08 01:36:32;;;;;;;12.23;5.90;;;;;;;37.88;45.33;100647.91;4974761;28;20430;-76
2022/03/08 01:38:58;;;;;;;15.03;6.93;;;;;;;38.03;45.11;100635.88;4975143;28;20473;-76
2022/03/08 01:41:24;;;;;;;18.53;6.33;;;;;;;37.80;45.16;100634.28;4974812;28;20433;-76
2022/03/08 01:43:50;;;;;;;16.13;5.73;;;;;;;37.88;44.93;100644.41;4975216;28;20508;-76
2022/03/08 01:46:16;;;;;;;8.17;5.30;;;;;;;38.04;45.23;100634.75;4975134;28;20417;-76
2022/03/08 01:48:44;;;;;;;10.33;6.43;;;;;;;38.29;44.14;100632.47;4975111;28;20422;-77
2022/03/08 01:51:11;;;;;;;12.90;6.00;;;;;;;38.07;44.81;100634.13;4975113;28;20417;-77
2022/03/08 01:53:40;;;;;;;15.70;5.93;;;;;;;38.14;44.60;100631.78;4975083;28;20422;-77
2022/03/08 01:56:10;;;;;;;19.07;6.70;;;;;;;38.27;44.50;100624.69;4975109;28;20929;-77
2022/03/08 01:58:37;;;;;;;17.90;5.50;;;;;;;38.26;43.95;100612.25;4974849;28;20462;-77
2022/03/08 02:01:05;;;;;;;13.73;7.13;;;;;;;38.16;44.19;100621.41;4977385;28;20467;-77
2022/03/08 02:03:31;;;;;;;17.63;7.90;;;;;;;38.27;44.20;100619.25;4978458;28;20433;-77
2022/03/08 02:05:58;;;;;;;11.00;5.70;;;;;;;38.39;44.48;100613.25;4978966;28;20457;-79
2022/03/08 02:08:26;;;;;;;14.80;6.60;;;;;;;38.25;44.62;100621.47;4978907;28;20421;-79
2022/03/08 02:10:53;;;;;;;13.73;6.50;;;;;;;38.22;44.49;100622.06;4978938;28;20987;-76
2022/03/08 02:13:20;;;;;;;10.97;6.30;;;;;;;38.19;44.16;100622.72;4978915;28;20483;-79
2022/03/08 02:15:50;;;;;;;11.03;5.47;;;;;;;38.16;44.02;100621.41;4978090;28;20536;-76
2022/03/08 02:18:18;;;;;;;11.57;6.00;;;;;;;38.20;43.98;100618.09;4978843;28;20413;-76
2022/03/08 02:20:44;;;;;;;14.43;7.43;;;;;;;38.21;44.13;100623.19;4978681;28;20425;-76
2022/03/08 02:23:10;;;;;;;16.47;7.20;;;;;;;38.08;44.11;100616.78;4978194;28;20452;-80
2022/03/08 02:25:36;;;;;;;14.40;5.90;;;;;;;38.18;44.28;100613.78;4978535;28;20476;-78
2022/03/08 02:28:03;;;;;;;14.33;6.73;;;;;;;38.16;44.36;100613.28;4978526;28;20496;-77
2022/03/08 02:30:29;;;;;;;15.47;6.83;;;;;;;37.97;44.97;100611.94;4978347;28;20559;-77
2022/03/08 02:32:55;;;;;;;14.40;7.10;;;;;;;38.11;45.22;100612.63;4978215;28;20718;-79
2022/03/08 02:35:27;;;;;;;20.13;8.27;;;;;;;37.92;45.05;100627.22;4978446;28;20444;-78
2022/03/08 02:38:03;;;;;;;10.57;6.30;;;;;;;38.05;44.49;100619.28;4978517;28;20786;-76
2022/03/08 02:40:32;;;;;;;14.57;5.67;;;;;;;37.98;44.68;100613.53;4978510;28;20443;-76
2022/03/08 02:42:59;;;;;;;10.77;6.20;;;;;;;38.15;43.92;100614.41;4978345;28;20417;-76
2022/03/08 02:45:25;;;;;;;16.17;6.47;;;;;;;38.26;43.86;100611.41;4978325;28;20449;-79
2022/03/08 02:47:52;;;;;;;16.70;6.50;;;;;;;38.33;43.89;100609.06;4977890;28;20455;-78
2022/03/08 02:50:19;;;;;;;16.77;6.60;;;;;;;38.21;44.47;100606.13;4977675;28;20471;-76
2022/03/08 02:52:48;;;;;;;19.67;5.60;;;;;;;38.16;44.67;100599.75;4977646;28;20981;-78
2022/03/08 02:55:14;;;;;;;16.90;7.00;;;;;;;38.33;44.05;100593.63;4995633;28;20411;-76
2022/03/08 02:57:41;;;;;;;13.23;7.00;;;;;;;38.24;43.78;100597.38;4977868;28;20523;-79
2022/03/08 03:00:11;;;;;;;12.70;5.60;;;;;;;38.31;43.79;100597.75;4977657;28;20933;-77
2022/03/08 03:02:37;;;;;;;11.67;6.30;;;;;;;38.36;44.10;100594.88;4977859;28;20428;-78
2022/03/08 03:05:03;;;;;;;13.40;5.73;;;;;;;38.50;43.76;100578.50;4977604;28;20451;-76
2022/03/08 03:07:30;;;;;;;16.33;7.23;;;;;;;38.33;43.88;100573.84;4977825;28;20948;-76
2022/03/08 03:09:56;;;;;;;13.77;5.93;;;;;;;38.37;43.63;100583.75;4977566;28;20939;-76
2022/03/08 03:12:22;;;;;;;18.10;7.77;;;;;;;38.09;44.44;100575.03;4977592;28;20425;-76
2022/03/08 03:14:48;;;;;;;9.80;5.30;;;;;;;38.26;44.28;100582.44;4977544;28;20445;-76
2022/03/08 03:17:16;;;;;;;13.10;6.40;;;;;;;38.28;44.33;100568.59;4977757;28;20422;-79
2022/03/08 03:19:42;;;;;;;11.00;5.87;;;;;;;38.49;44.16;100568.75;4977443;28;20460;-76
2022/03/08 03:22:08;;;;;;;10.00;5.53;;;;;;;38.34;44.23;100559.19;4977204;28;20984;-78
2022/03/08 03:24:34;;;;;;;14.63;5.70;;;;;;;38.09;44.45;100566.91;4977666;28;20429;-79
2022/03/08 03:27:00;;;;;;;12.23;7.07;;;;;;;38.08;44.69;100565.31;4995033;28;20416;-77
2022/03/08 03:29:27;;;;;;;12.17;7.37;;;;;;;37.90;45.14;100569.06;4977432;28;20469;-76
2022/03/08 03:31:53;;;;;;;8.87;5.63;;;;;;;38.05;44.69;100570.53;4977499;28;20487;-76
2022/03/08 03:34:19;;;;;;;16.50;7.30;;;;;;;38.34;44.39;100572.75;4977219;28;20430;-76
2022/03/08 03:36:45;;;;;;;12.67;6.40;;;;;;;38.22;44.33;100572.53;4977467;28;20921;-76
2022/03/08 03:39:11;;;;;;;18.07;6.27;;;;;;;38.19;44.46;100568.53;4976863;28;20953;-76
2022/03/08 03:41:37;;;;;;;13.27;5.50;;;;;;;38.33;44.05;100576.56;4977370;28;20484;-76
2022/03/08 03:44:03;;;;;;;14.90;6.50;;;;;;;38.43;43.77;100557.31;4977207;28;20929;-78
2022/03/08 03:46:30;;;;;;;14.17;6.40;;;;;;;38.40;44.03;100557.94;4976782;28;20435;-79
2022/03/08 03:48:56;;;;;;;14.10;6.03;;;;;;;38.42;43.60;100563.81;4977020;28;20492;-79
2022/03/08 03:51:22;;;;;;;10.90;6.67;;;;;;;38.41;43.96;100568.44;4977076;28;20456;-78
2022/03/08 03:53:48;;;;;;;9.63;5.70;;;;;;;38.46;43.87;100570.22;4976695;28;20425;-78
2022/03/08 03:56:14;;;;;;;10.97;5.93;;;;;;;38.41;44.24;100579.28;4977028;28;20425;-76
2022/03/08 03:58:40;;;;;;;10.40;6.67;;;;;;;38.09;44.34;100574.25;4976905;28;20492;-76
2022/03/08 04:01:06;;;;;;;12.23;8.43;;;;;;;38.28;44.38;100582.91;4977225;28;20433;-76
2022/03/08 04:03:32;;;;;;;16.57;7.80;;;;;;;38.17;44.07;100571.53;4977108;28;20439;-76
2022/03/08 04:05:58;;;;;;;16.60;6.30;;;;;;;38.23;44.18;100587.66;4976853;28;20925;-76
2022/03/08 04:08:24;;;;;;;12.67;6.60;;;;;;;38.30;44.11;100582.59;4976378;28;20429;-76
2022/03/08 04:10:51;;;;;;;10.87;4.67;;;;;;;38.34;43.83;100592.50;4976508;28;20472;-76
2022/03/08 04:13:18;;;;;;;14.97;5.60;;;;;;;38.21;44.13;100585.25;4976796;28;20449;-76
2022/03/08 04:15:45;;;;;;;11.00;6.63;;;;;;;38.13;44.34;100589.56;4976659;28;21004;-76
2022/03/08 04:18:11;;;;;;;16.53;6.33;;;;;;;38.10;44.26;100595.59;4976468;28;20512;-76
2022/03/08 04:20:38;;;;;;;13.07;7.63;;;;;;;38.03;44.41;100595.25;4976580;28;20428;-76
2022/03/08 04:23:04;;;;;;;14.47;6.17;;;;;;;38.11;44.29;100601.78;4975661;28;20445;-76
2022/03/08 04:25:31;;;;;;;21.13;7.10;;;;;;;38.26;44.22;100595.16;4976454;28;20432;-76
2022/03/08 04:27:57;;;;;;;23.23;8.10;;;;;;;38.17;44.08;100606.75;4976336;28;20536;-76
2022/03/08 04:30:23;;;;;;;14.93;6.60;;;;;;;38.36;43.69;100611.13;4976124;28;20509;-78
2022/03/08 04:32:52;;;;;;;18.63;5.97;;;;;;;38.35;43.97;100620.38;4976054;28;20516;-78
2022/03/08 04:35:19;;;;;;;12.90;7.13;;;;;;;38.24;43.91;100621.75;4976148;28;20460;-76
2022/03/08 04:37:46;;;;;;;14.93;5.77;;;;;;;38.45;44.21;100620.09;4976338;28;20793;-78
2022/03/08 04:40:12;;;;;;;14.97;6.50;;;;;;;38.34;44.51;100616.09;4976164;28;20452;-76
2022/03/08 04:42:40;;;;;;;11.47;6.90;;;;;;;38.16;43.72;100613.28;4993597;28;20444;-76
2022/03/08 04:45:09;;;;;;;12.60;5.40;;;;;;;38.22;43.93;100613.16;4976062;28;20508;-76
2022/03/08 04:47:36;;;;;;;13.47;5.90;;;;;;;38.37;43.92;100621.69;4975514;28;20465;-79
2022/03/08 04:50:08;;;;;;;14.87;6.23;;;;;;;38.24;44.43;100613.63;4993326;28;20469;-79
2022/03/08 04:52:34;;;;;;;13.33;6.80;;;;;;;38.26;44.28;100611.41;4975837;28;20433;-76
2022/03/08 04:55:00;;;;;;;12.97;7.40;;;;;;;38.34;43.97;100608.75;4975337;28;20440;-76
2022/03/08 04:57:26;;;;;;;12.73;6.60;;;;;;;38.29;44.32;100598.06;4975914;28;20428;-78
2022/03/08 04:59:53;;;;;;;21.33;7.17;;;;;;;38.15;44.11;100602.78;4975942;28;20425;-76
2022/03/08 05:02:19;;;;;;;15.60;8.73;;;;;;;38.28;44.17;100596.47;4975485;28;20449;-76
2022/03/08 05:04:45;;;;;;;16.20;8.30;;;;;;;38.36;43.86;100595.69;4975678;28;20452;-79
2022/03/08 05:07:11;;;;;;;11.27;6.63;;;;;;;38.30;44.00;100604.28;4975628;28;20449;-78
2022/03/08 05:09:37;;;;;;;12.13;6.67;;;;;;;38.21;44.45;100598.81;4975473;28;20472;-78
2022/03/08 05:12:04;;;;;;;14.50;6.00;;;;;;;38.25;44.39;100610.63;4975562;28;20425;-76
2022/03/08 05:14:31;;;;;;;11.80;6.20;;;;;;;38.18;44.76;100596.72;4975691;28;20426;-76
2022/03/08 05:16:57;;;;;;;32.23;8.40;;;;;;;38.21;44.71;100606.94;4975539;28;20429;-78
2022/03/08 05:19:24;;;;;;;14.13;7.10;;;;;;;38.34;44.09;100605.25;4974965;28;20441;-76
2022/03/08 05:21:50;;;;;;;13.97;6.37;;;;;;;38.13;44.81;100599.59;4975051;28;20804;-78
2022/03/08 05:24:16;;;;;;;9.97;5.77;;;;;;;38.19;44.88;100606.47;4975251;28;20440;-78
2022/03/08 05:26:42;;;;;;;11.60;6.27;;;;;;;38.26;44.51;100604.13;4975040;28;20424;-78
2022/03/08 05:29:08;;;;;;;10.73;6.67;;;;;;;38.26;44.63;100604.13;4975103;28;20822;-79
2022/03/08 05:31:35;;;;;;;19.30;7.80;;;;;;;38.36;44.31;100605.72;4975068;28;21008;-78
2022/03/08 05:34:01;;;;;;;14.17;7.63;;;;;;;38.39;43.97;100608.63;4975291;28;20421;-78
2022/03/08 05:36:28;;;;;;;11.30;6.93;;;;;;;38.33;44.22;100603.66;4974756;28;20432;-78
2022/03/08 05:38:54;;;;;;;15.90;6.67;;;;;;;38.13;44.45;100605.81;4975099;28;20427;-76
2022/03/08 05:41:20;;;;;;;12.53;6.30;;;;;;;37.99;44.84;100607.00;4975207;28;20432;-78
2022/03/08 05:43:46;;;;;;;14.13;6.50;;;;;;;37.99;44.59;100615.13;4975201;28;20495;-76
2022/03/08 05:46:12;;;;;;;13.70;6.97;;;;;;;38.05;44.55;100608.47;4974549;28;20813;-78
2022/03/08 05:48:39;;;;;;;11.93;8.20;;;;;;;38.17;44.43;100617.59;4974620;28;20956;-80
2022/03/08 05:51:05;;;;;;;33.20;9.50;;;;;;;38.13;44.53;100624.75;4975033;28;20938;-82
2022/03/08 05:53:32;;;;;;;23.20;8.30;;;;;;;38.13;44.68;100632.88;4975186;28;20932;-80
2022/03/08 05:55:58;;;;;;;16.20;7.27;;;;;;;38.21;44.20;100634.03;4975345;28;20456;-79
2022/03/08 05:58:24;;;;;;;19.63;6.07;;;;;;;38.16;44.70;100632.25;4974353;28;20968;-78
2022/03/08 06:00:50;;;;;;;16.57;7.23;;;;;;;38.25;44.63;100640.44;4975142;28;20772;-81
2022/03/08 06:03:16;;;;;;;16.10;8.07;;;;;;;38.39;44.15;100641.13;4974728;28;21051;-78
2022/03/08 06:05:42;;;;;;;10.70;6.73;;;;;;;38.28;44.35;100649.84;4963310;28;20443;-83
2022/03/08 06:08:08;;;;;;;13.90;7.60;;;;;;;38.27;44.26;100651.75;4974010;28;20433;-75
2022/03/08 06:10:34;;;;;;;13.67;7.50;;;;;;;38.28;44.38;100653.34;4974107;28;20457;-82
2022/03/08 06:13:00;;;;;;;18.47;6.70;;;;;;;38.38;44.22;100660.41;4992186;28;20409;-82
2022/03/08 06:15:27;;;;;;;14.00;8.07;;;;;;;38.41;44.33;100665.19;4973006;28;20513;-84
2022/03/08 06:17:53;;;;;;;24.10;9.60;;;;;;;38.45;43.89;100671.59;4975091;28;20428;-81
2022/03/08 06:20:19;;;;;;;16.87;9.33;;;;;;;38.39;44.13;100675.56;4974801;28;20818;-77
2022/03/08 06:22:45;;;;;;;14.10;7.07;;;;;;;38.52;43.96;100671.94;4974560;28;20580;-78
2022/03/08 06:25:11;;;;;;;12.90;8.80;;;;;;;38.39;43.95;100678.28;4974745;28;20409;-78
2022/03/08 06:27:38;;;;;;;16.20;8.67;;;;;;;38.47;43.88;100690.25;4974971;28;20425;-80
2022/03/08 06:30:04;;;;;;;11.70;8.30;;;;;;;38.48;43.59;100692.63;4975149;28;20464;-82
2022/03/08 06:32:31;;;;;;;12.67;7.87;;;;;;;38.55;43.56;100687.56;4962258;28;20538;-79
2022/03/08 06:34:57;;;;;;;13.70;6.80;;;;;;;38.63;43.49;100692.22;4952315;29;20431;-77
2022/03/08 06:37:23;;;;;;;20.80;7.70;;;;;;;38.68;43.32;100702.91;4952009;29;20462;-79
2022/03/08 06:39:49;;;;;;;20.03;8.03;;;;;;;38.77;43.28;100710.28;4951937;29;20434;-78
2022/03/08 06:42:16;;;;;;;14.23;8.17;;;;;;;38.68;43.32;100712.97;4952214;29;20482;-80
2022/03/08 06:44:43;;;;;;;13.87;10.30;;;;;;;38.64;43.43;100715.50;4952158;29;20518;-80
2022/03/08 06:47:10;;;;;;;13.90;7.47;;;;;;;38.64;43.51;100718.19;4953560;28;20443;-80
2022/03/08 06:49:41;;;;;;;18.43;7.90;;;;;;;38.69;43.17;100720.78;4953320;28;20467;-76
2022/03/08 06:52:09;;;;;;;12.83;6.73;;;;;;;38.71;42.97;100717.75;4951428;29;20450;-81
2022/03/08 06:54:35;;;;;;;13.37;6.97;;;;;;;38.55;43.27;100730.94;4953195;29;20449;-81
2022/03/08 06:57:02;;;;;;;10.03;5.73;;;;;;;38.46;43.78;100734.72;4953812;29;20454;-79
2022/03/08 06:59:28;;;;;;;15.63;8.60;;;;;;;38.61;43.83;100737.81;4953273;29;20885;-78
2022/03/08 07:01:56;;;;;;;15.40;7.80;;;;;;;38.69;43.71;100742.47;4953360;29;20454;-78
2022/03/08 07:04:23;;;;;;;14.93;7.30;;;;;;;38.74;43.76;100746.19;4955315;29;20486;-76
2022/03/08 07:06:49;;;;;;;21.40;8.57;;;;;;;38.65;43.62;100751.53;4955147;29;20423;-77
2022/03/08 07:09:16;;;;;;;21.20;8.07;;;;;;;38.57;43.95;100747.69;4954706;29;20498;-80
2022/03/08 07:11:42;;;;;;;16.40;10.97;;;;;;;38.53;44.44;100748.63;4954725;29;20431;-77
2022/03/08 07:14:08;;;;;;;22.57;10.90;;;;;;;38.40;44.37;100750.31;4955354;29;20431;-78
2022/03/08 07:16:34;;;;;;;17.93;9.63;;;;;;;38.50;43.61;100755.47;4955073;29;20911;-78
2022/03/08 07:19:01;;;;;;;16.90;9.90;;;;;;;38.48;43.93;100754.97;4955012;29;20499;-78
2022/03/08 07:21:27;;;;;;;14.60;7.43;;;;;;;38.38;44.18;100756.06;4955134;29;20477;-81
2022/03/08 07:23:53;;;;;;;16.03;9.13;;;;;;;38.36;44.08;100766.38;4954342;29;20423;-79
2022/03/08 07:26:19;;;;;;;19.30;9.77;;;;;;;38.33;44.03;100769.72;4954511;29;20420;-81
2022/03/08 07:28:45;;;;;;;22.23;10.13;;;;;;;38.56;43.56;100764.25;4954619;29;20513;-78
2022/03/08 07:31:12;;;;;;;14.50;8.40;;;;;;;38.44;44.01;100765.66;4954904;29;20439;-78
2022/03/08 07:33:40;;;;;;;25.33;9.43;;;;;;;38.41;43.91;100779.00;4954899;28;20498;-78
2022/03/08 07:36:07;;;;;;;28.10;12.03;;;;;;;38.49;44.31;100767.44;4953453;29;20510;-75
2022/03/08 07:38:33;;;;;;;26.40;9.43;;;;;;;38.54;43.60;100764.56;4953119;29;20431;-78
2022/03/08 07:40:59;;;;;;;15.17;10.40;;;;;;;38.62;43.49;100765.72;4952753;29;20423;-79
2022/03/08 07:43:25;;;;;;;14.93;11.93;;;;;;;38.70;43.69;100768.47;4952898;29;20423;-78
2022/03/08 07:45:51;;;;;;;17.70;10.20;;;;;;;38.78;43.26;100766.91;4953333;29;20423;-80
2022/03/08 07:48:18;;;;;;;16.37;8.63;;;;;;;38.81;43.49;100776.34;4952854;29;20878;-80
2022/03/08 07:50:44;;;;;;;14.27;7.87;;;;;;;38.88;43.62;100780.19;4952669;29;20522;-80
2022/03/08 07:53:10;;;;;;;15.03;8.30;;;;;;;38.83;43.81;100776.81;4952849;29;20819;-80
2022/03/08 07:55:36;;;;;;;17.30;8.67;;;;;;;38.80;43.31;100782.88;4952731;29;20443;-77
2022/03/08 07:58:04;;;;;;;18.60;8.33;;;;;;;38.82;43.48;100788.78;4951848;28;20852;-79
2022/03/08 08:00:32;;;;;;;17.50;9.50;;;;;;;38.75;43.49;100786.53;4952832;29;20939;-78
2022/03/08 08:02:59;;;;;;;15.83;8.63;;;;;;;38.79;43.45;100783.97;4953311;29;20462;-78
2022/03/08 08:05:25;;;;;;;16.90;9.37;;;;;;;38.66;43.54;100785.66;4954370;29;20482;-77
2022/03/08 08:07:51;;;;;;;16.10;9.43;;;;;;;38.69;42.97;100785.84;4954526;29;20423;-77
2022/03/08 08:10:17;;;;;;;15.53;9.63;;;;;;;38.64;42.97;100799.53;4953563;28;20481;-80
2022/03/08 08:12:44;;;;;;;23.20;7.73;;;;;;;38.68;43.02;100797.00;4953785;29;20427;-80
2022/03/08 08:15:10;;;;;;;19.20;7.30;;;;;;;38.82;43.01;100802.34;4954232;29;20427;-78
2022/03/08 08:17:36;;;;;;;13.40;7.70;;;;;;;38.85;42.95;100809.84;4970433;28;20443;-78
2022/03/08 08:20:03;;;;;;;23.03;9.97;;;;;;;38.85;42.84;100804.41;4954100;29;21006;-79
2022/03/08 08:22:29;;;;;;;13.53;7.83;;;;;;;38.90;43.08;100801.56;4953978;29;20466;-78
2022/03/08 08:24:55;;;;;;;24.20;9.00;;;;;;;39.05;42.84;100809.28;4953802;29;20431;-80
2022/03/08 08:27:21;;;;;;;10.80;8.13;;;;;;;38.78;43.34;100798.66;4952828;29;20809;-81
2022/03/08 08:29:48;;;;;;;21.13;9.07;;;;;;;38.92;43.04;100805.56;4969970;28;20466;-80
2022/03/08 08:32:14;;;;;;;27.07;10.90;;;;;;;38.85;43.34;100807.91;4969790;28;20490;-80
2022/03/08 08:34:41;;;;;;;21.37;11.07;;;;;;;38.86;43.07;100797.91;4954173;29;20419;-79
2022/03/08 08:37:09;;;;;;;13.17;8.30;;;;;;;38.91;42.64;100806.66;4953662;29;20451;-80
2022/03/08 08:39:36;;;;;;;15.73;9.03;;;;;;;38.65;43.77;100801.13;4953742;29;20419;-80
2022/03/08 08:42:02;;;;;;;11.27;8.00;;;;;;;38.89;43.08;100803.47;4953647;29;20447;-76
2022/03/08 08:44:28;;;;;;;16.37;7.60;;;;;;;38.77;43.08;100802.47;4953143;29;20449;-72
2022/03/08 08:46:54;;;;;;;32.93;9.03;;;;;;;38.77;42.79;100794.34;4969760;28;20489;-75
2022/03/08 08:49:20;;;;;;;14.03;8.93;;;;;;;38.77;43.29;100803.28;4953545;29;20463;-78
2022/03/08 08:51:46;;;;;;;19.53;9.27;;;;;;;38.94;42.62;100788.97;4954800;28;20507;-79
2022/03/08 08:54:13;;;;;;;20.73;9.47;;;;;;;38.95;42.88;100801.44;4953403;29;20537;-77
2022/03/08 08:56:39;;;;;;;20.10;7.37;;;;;;;38.85;42.65;100804.41;4969483;28;20447;-79
2022/03/08 08:59:06;;;;;;;12.33;5.30;;;;;;;38.70;43.34;100809.13;4969573;28;20427;-78
2022/03/08 09:01:33;;;;;;;20.20;7.83;;;;;;;38.84;43.25;100814.47;4953500;29;20423;-78
2022/03/08 09:03:59;;;;;;;18.30;9.10;;;;;;;38.83;43.22;100817.50;4953190;29;20463;-76
2022/03/08 09:06:26;;;;;;;12.40;5.83;;;;;;;38.85;43.07;100812.53;4952919;29;20457;-75
2022/03/08 09:08:52;;;;;;;17.00;6.03;;;;;;;38.87;43.35;100810.34;4954234;28;20499;-79
2022/03/08 09:11:18;;;;;;;19.47;6.60;;;;;;;38.81;43.49;100820.53;4953376;28;20447;-80
2022/03/08 09:13:44;;;;;;;12.40;8.10;;;;;;;38.86;43.16;100806.03;4969293;28;20837;-80
2022/03/08 09:16:11;;;;;;;10.80;8.13;;;;;;;38.95;42.73;100809.56;4969039;28;20919;-78
2022/03/08 09:18:37;;;;;;;17.87;9.30;;;;;;;39.04;42.91;100815.81;4953111;29;20794;-76
2022/03/08 09:21:03;;;;;;;14.80;6.67;;;;;;;39.09;42.35;100807.50;4968981;28;20415;-79
2022/03/08 09:23:29;;;;;;;14.80;6.23;;;;;;;39.05;42.27;100812.00;4952673;29;20423;-77
2022/03/08 09:25:55;;;;;;;15.07;7.70;;;;;;;39.16;42.33;100809.78;4952600;29;20427;-77
2022/03/08 09:28:21;;;;;;;19.90;8.60;;;;;;;39.11;42.71;100812.66;4952778;29;20419;-77
2022/03/08 09:30:48;;;;;;;14.13;6.43;;;;;;;38.92;42.74;100810.22;4968997;28;20497;-77
2022/03/08 09:33:14;;;;;;;20.40;8.33;;;;;;;38.95;42.83;100813.06;4968905;28;20513;-77
2022/03/08 09:35:41;;;;;;;14.97;6.83;;;;;;;39.04;43.04;100815.00;4968988;28;20431;-77
2022/03/08 09:38:07;;;;;;;10.33;6.60;;;;;;;39.05;42.75;100822.84;4952530;29;20550;-79
2022/03/08 09:40:35;;;;;;;10.57;5.90;;;;;;;39.16;42.67;100810.59;4954026;28;20775;-77
2022/03/08 09:43:01;;;;;;;15.63;6.63;;;;;;;39.22;42.22;100813.97;4953078;29;20789;-77
2022/03/08 09:45:27;;;;;;;10.63;5.00;;;;;;;39.13;42.18;100818.56;4968778;28;20419;-77
2022/03/08 09:47:53;;;;;;;11.50;5.50;;;;;;;39.04;42.32;100809.56;4952539;29;20490;-77
2022/03/08 09:50:20;;;;;;;10.97;6.57;;;;;;;38.99;42.13;100813.25;4968876;28;20466;-79
2022/03/08 09:52:46;;;;;;;9.30;5.10;;;;;;;38.86;43.09;100801.41;4968622;28;20462;-79
2022/03/08 09:55:15;;;;;;;8.87;5.83;;;;;;;38.87;42.89;100800.28;4968552;28;20438;-77
2022/03/08 09:57:43;;;;;;;9.10;5.00;;;;;;;38.87;43.38;100794.06;4952557;29;20427;-77
2022/03/08 10:00:10;;;;;;;11.03;6.30;;;;;;;39.04;42.91;100796.00;4952629;29;20421;-79
2022/03/08 10:02:48;;;;;;;8.10;5.63;;;;;;;39.09;42.48;100793.94;4951783;29;21009;-79
2022/03/08 10:05:16;;;;;;;12.30;6.20;;;;;;;39.22;42.50;100784.91;4952615;29;20419;-80
2022/03/08 10:08:13;;;;;;;21.67;7.30;;;;;;;39.29;42.73;100770.06;4952556;29;20415;-80
2022/03/08 10:11:01;;;;;;;12.00;6.23;;;;;;;39.00;42.77;100762.50;4953041;28;20908;-77
2022/03/08 10:13:32;;;;;;;12.23;6.63;;;;;;;39.01;42.92;100759.47;4952604;29;20415;-76
2022/03/08 10:16:23;;;;;;;13.43;6.83;;;;;;;39.01;42.69;100751.34;4952381;29;20451;-77
2022/03/08 10:18:51;;;;;;;13.83;5.47;;;;;;;38.98;42.87;100743.84;4952444;29;20423;-77
2022/03/08 10:21:32;;;;;;;17.73;6.30;;;;;;;38.95;42.49;100747.97;4954105;28;20399;-77
2022/03/08 10:24:08;;;;;;;9.37;6.37;;;;;;;39.26;42.14;100749.00;4957150;29;20407;-80
2022/03/08 10:26:44;;;;;;;14.23;6.23;;;;;;;39.05;42.46;100743.38;4972156;28;20419;-77
2022/03/08 10:29:10;;;;;;;15.60;6.10;;;;;;;39.09;42.62;100745.13;4956029;29;20506;-77
2022/03/08 10:31:36;;;;;;;11.37;5.83;;;;;;;39.37;41.79;100740.25;4956367;28;20498;-77
2022/03/08 10:34:06;;;;;;;12.83;6.00;;;;;;;39.27;42.29;100737.84;4978647;28;20484;-77
2022/03/08 10:36:35;;;;;;;12.67;7.73;;;;;;;39.41;42.29;100738.50;4978225;28;20429;-78
2022/03/08 10:39:07;;;;;;;10.13;7.00;;;;;;;39.28;42.07;100735.91;4978137;28;20417;-77
2022/03/08 10:41:39;;;;;;;10.30;6.10;;;;;;;39.14;42.02;100734.13;4980544;28;20419;-80
2022/03/08 10:44:05;;;;;;;11.73;6.00;;;;;;;39.32;42.06;100742.31;4988025;28;20483;-80
2022/03/08 10:46:31;;;;;;;10.87;5.90;;;;;;;39.34;41.81;100730.00;4986300;28;20413;-78
2022/03/08 10:48:57;;;;;;;16.80;7.17;;;;;;;39.44;42.05;100732.41;4985328;28;20424;-79
2022/03/08 10:51:23;;;;;;;16.83;7.13;;;;;;;39.25;42.23;100725.72;4978414;28;20406;-79
2022/03/08 10:53:49;;;;;;;9.10;6.37;;;;;;;39.59;41.96;100724.91;4977522;28;20425;-80
2022/03/08 10:56:23;;;;;;;14.00;7.00;;;;;;;39.70;41.57;100726.19;4977896;28;20988;-79
2022/03/08 10:58:53;;;;;;;21.03;5.93;;;;;;;39.66;41.48;100727.97;4993017;28;20448;-81
2022/03/08 11:01:19;;;;;;;11.63;5.53;;;;;;;39.78;40.82;100728.13;4995341;28;20405;-78
2022/03/08 11:03:56;;;;;;;14.50;6.33;;;;;;;39.59;41.17;100722.19;4977895;28;20512;-78
2022/03/08 11:06:24;;;;;;;9.67;5.10;;;;;;;39.66;41.36;100720.63;4977986;28;20933;-78
2022/03/08 11:08:52;;;;;;;10.73;5.40;;;;;;;39.69;41.15;100722.69;4977842;28;20424;-78
2022/03/08 11:11:20;;;;;;;12.73;6.57;;;;;;;39.92;40.70;100717.84;4977849;28;20445;-78
2022/03/08 11:13:54;;;;;;;11.33;4.77;;;;;;;39.90;40.52;100713.84;4977963;28;20420;-79
2022/03/08 11:16:20;;;;;;;11.77;6.70;;;;;;;40.09;40.62;100710.81;4977663;28;20422;-80